Windfall, Pennsylvania
Current Conditions -  °F | °C
As of 2:54 AM on Sunday 23 Nov 2014 (Local Time) from KIPT Reporting Station
Haze Haze  
Wind Chill: 32°   Ceiling: 6000
Heat Index: 32°   Visibility: 6mi
Dew Point: 28°   Wind: 3mph
Humidity: 85%   Direction: 240°WSW
Pressure: 30.16"   Gusts: NA
Location:  41.6679°N, 76.7185°W
Report Text: KIPT 230754Z AUTO 24003KT 6SM BR BKN060 OVC085 00/M02 A3016 RMK AO2 SLP218 T00001022
Loading
Personal Weather Stations






























Interactive Weather Map New forecast layout! Learn more

10-Day Weather Forecast

Advertisements
Track Severe Weather on mobile